Hlavní strana
METAR-TAF:

METAR-TAF

Letiště :

Saarbrücken, Německo

zeměpisná šířka: 49-13N, zeměpisná délka: 007-07E, výška: 322 m

Aktuální stav počasí

Zpráva byla vytvořena před 20 minutami, v 13:50 UTC
Západní vítr 13 kt, proměnlivý mezi západojihozápadním a severozápadním
Teplota 21°C
Vlhkost vzduchu 49%
Tlak 1021 hPa
Viditelnost 10 km a více
Skoro jasno ve výšce 4800 ft

METAR: EDDR 141350Z AUTO 27013KT 240V310 9999 FEW048 21/10 Q1021 NOSIG

Čas: 16:10 (14:10 UTC)

Předpověď počasí

Zpráva byla vytvořena před 3 hodinami a 10 minutami, v 11:00 UTC
Předpověď platná od 14 v 12 UTC do 15 v 12 UTC
Západní vítr 10 kt
Viditelnost 10 km a více
Polojasno ve výšce 4000 ft
Změna
od 15 v 09 UTC do 15 v 10 UTC
Západojihozápadní vítr 15 kt s nárazy do 30 kt

TAF: EDDR 141100Z 1412/1512 27010KT 9999 SCT040 BECMG 1509/1510 25015G30KT

Stav a předpovědi počasí z více než 4 000 letišť (zprávy METAR a TAF).

Červené a žluté tečky na mapě představují dostupné meteorologické stanice.

Když kurzor umístíte na tečku, zobrazí se název stanice.

Pak kliknutím zobrazíte stav a předpověď počasí.

Chcete-li změnit mapu, kliknutím na zelené tlačítko se znaménkem +mapu přiblížíte, kliknutím na zelené tlačítko se znaménkem – mapu oddálíte a kliknutím na zelené šipky přejdete na sousední mapy.


METAR-TAF: